Time;durP1;ratioP1;P1;durP2;ratioP2;P2;SDS_P1;SDS_P2;PMS_P1;PMS_P2;Temp;Humidity;BMP_temperature;BMP_pressure;BME280_temperature;BME280_humidity;BME280_pressure;Samples;Min_cycle;Max_cycle;Signal;HPM_P1;HPM_P2
2023/09/06 00:02:24;;;;;;;6.20;4.78;;;19.40;99.90;;;;;;5031122;28;20040;-64
2023/09/06 00:04:50;;;;;;;6.20;4.63;;;19.40;99.90;;;;;;5030588;28;20029;-64
2023/09/06 00:07:15;;;;;;;6.28;4.35;;;19.40;99.90;;;;;;5031035;28;20546;-64
2023/09/06 00:09:41;;;;;;;10.88;4.30;;;19.30;99.90;;;;;;5031324;28;20399;-64
2023/09/06 00:12:07;;;;;;;5.97;3.92;;;19.30;99.90;;;;;;5028531;28;20037;-64
2023/09/06 00:14:32;;;;;;;6.72;4.70;;;19.20;99.90;;;;;;5028433;28;20048;-64
2023/09/06 00:16:58;;;;;;;5.95;4.45;;;19.20;99.90;;;;;;5023642;28;20053;-64
2023/09/06 00:19:24;;;;;;;7.25;4.80;;;19.20;99.90;;;;;;5030285;28;20037;-64
2023/09/06 00:21:50;;;;;;;7.20;4.78;;;19.10;99.90;;;;;;5024197;28;20041;-64
2023/09/06 00:24:15;;;;;;;7.30;4.85;;;19.20;99.90;;;;;;5029187;28;20056;-64
2023/09/06 00:26:41;;;;;;;10.98;4.85;;;19.10;99.90;;;;;;5024710;28;20496;-64
2023/09/06 00:29:07;;;;;;;6.13;4.70;;;19.10;99.90;;;;;;5028434;28;20037;-64
2023/09/06 00:31:36;;;;;;;7.97;5.00;;;19.10;99.90;;;;;;5028366;28;20044;-65
2023/09/06 00:34:02;;;;;;;7.13;4.82;;;19.20;99.90;;;;;;5028884;28;20038;-64
2023/09/06 00:36:29;;;;;;;6.95;5.00;;;19.20;99.90;;;;;;5026127;28;20073;-64
2023/09/06 00:38:58;;;;;;;7.85;4.68;;;19.10;99.90;;;;;;5030597;28;20038;-64
2023/09/06 00:41:24;;;;;;;6.60;4.78;;;19.10;99.90;;;;;;5030513;28;20160;-64
2023/09/06 00:43:50;;;;;;;8.27;5.13;;;19.10;99.90;;;;;;5030548;28;20029;-64
2023/09/06 00:46:16;;;;;;;8.70;4.82;;;19.10;99.90;;;;;;5029930;28;20475;-64
2023/09/06 00:48:42;;;;;;;6.18;5.00;;;19.10;99.90;;;;;;5029904;28;20369;-64
2023/09/06 00:51:07;;;;;;;9.50;4.93;;;19.10;99.90;;;;;;5029492;28;20507;-64
2023/09/06 00:53:34;;;;;;;7.40;5.15;;;19.10;99.90;;;;;;5028992;28;20055;-64
2023/09/06 00:56:03;;;;;;;7.68;5.13;;;19.10;99.90;;;;;;5030358;28;20103;-64
2023/09/06 00:58:30;;;;;;;8.75;5.28;;;19.10;99.90;;;;;;5026938;28;20048;-64
2023/09/06 01:00:56;;;;;;;7.47;5.10;;;19.10;99.90;;;;;;5026376;28;20103;-64
2023/09/06 01:03:21;;;;;;;8.50;5.03;;;19.10;99.90;;;;;;5030521;28;20144;-64
2023/09/06 01:05:56;;;;;;;7.95;4.88;;;19.10;99.90;;;;;;5025838;28;20506;-64
2023/09/06 01:08:28;;;;;;;8.15;5.57;;;19.10;99.90;;;;;;5030360;28;20045;-64
2023/09/06 01:10:54;;;;;;;;;;;19.10;99.90;;;;;;5029723;28;20551;-64
2023/09/06 01:13:20;;;;;;;6.13;5.13;;;19.00;99.90;;;;;;5021179;28;20016;-64
2023/09/06 01:15:46;;;;;;;8.80;5.63;;;19.00;99.90;;;;;;5029077;28;20077;-64
2023/09/06 01:18:14;;;;;;;8.73;5.40;;;19.00;99.90;;;;;;5030242;28;20095;-64
2023/09/06 01:20:51;;;;;;;10.25;6.05;;;19.00;99.90;;;;;;5028863;28;20401;-64
2023/09/06 01:23:33;;;;;;;8.77;6.32;;;19.00;99.90;;;;;;5030217;28;20051;-64
2023/09/06 01:25:59;;;;;;;9.40;5.75;;;19.00;99.90;;;;;;5028340;28;20419;-64
2023/09/06 01:28:28;;;;;;;10.50;6.88;;;19.00;99.90;;;;;;5030226;28;20095;-64
2023/09/06 01:30:59;;;;;;;8.10;5.68;;;19.00;99.90;;;;;;5029173;28;20041;-64
2023/09/06 01:33:24;;;;;;;9.45;5.22;;;19.00;99.90;;;;;;5033869;28;20042;-64
2023/09/06 01:35:50;;;;;;;7.22;5.53;;;18.90;99.90;;;;;;5032979;28;20039;-64
2023/09/06 01:38:16;;;;;;;6.80;5.80;;;18.90;99.90;;;;;;5033977;28;20500;-64
2023/09/06 01:40:45;;;;;;;8.45;5.13;;;18.80;99.90;;;;;;5033772;28;20041;-64
2023/09/06 01:43:11;;;;;;;8.50;5.45;;;18.90;99.90;;;;;;5033117;28;20071;-64
2023/09/06 01:45:54;;;;;;;8.18;5.85;;;18.80;99.90;;;;;;5033196;28;20555;-64
2023/09/06 01:48:20;;;;;;;7.60;5.38;;;18.80;99.90;;;;;;5033334;28;20124;-63
2023/09/06 01:50:47;;;;;;;8.27;5.13;;;18.80;99.90;;;;;;5029346;28;20041;-64
2023/09/06 01:53:15;;;;;;;9.60;5.40;;;18.70;99.90;;;;;;5032442;28;20033;-64
2023/09/06 01:55:44;;;;;;;7.53;5.35;;;18.70;99.90;;;;;;5027668;28;20141;-64
2023/09/06 01:58:11;;;;;;;8.05;5.65;;;18.70;99.90;;;;;;5029683;28;20041;-63
2023/09/06 02:00:37;;;;;;;11.93;5.65;;;18.70;99.90;;;;;;5033738;28;20046;-63
2023/09/06 02:03:05;;;;;;;8.20;5.43;;;18.60;99.90;;;;;;5033502;28;20049;-63
2023/09/06 02:05:31;;;;;;;8.40;5.60;;;18.60;99.90;;;;;;5033026;28;20064;-64
2023/09/06 02:07:57;;;;;;;7.88;5.72;;;18.60;99.90;;;;;;5030179;28;20499;-64
2023/09/06 02:10:23;;;;;;;8.18;5.65;;;18.60;99.90;;;;;;5033750;28;20040;-64
2023/09/06 02:12:48;;;;;;;16.75;6.30;;;18.60;99.90;;;;;;5032026;28;20391;-64
2023/09/06 02:15:14;;;;;;;8.77;5.90;;;18.60;99.90;;;;;;5032721;28;20146;-64
2023/09/06 02:17:44;;;;;;;8.02;6.10;;;18.60;99.90;;;;;;5033049;28;20507;-64
2023/09/06 02:20:17;;;;;;;10.10;6.50;;;18.60;99.90;;;;;;5032996;28;20046;-64
2023/09/06 02:22:43;;;;;;;11.32;6.50;;;18.60;99.90;;;;;;5031966;28;20045;-64
2023/09/06 02:25:09;;;;;;;10.77;6.22;;;18.60;99.90;;;;;;5032920;28;20038;-65
2023/09/06 02:27:36;;;;;;;8.70;6.32;;;18.70;99.90;;;;;;5033274;28;20041;-62
2023/09/06 02:30:06;;;;;;;11.65;6.20;;;18.70;99.90;;;;;;5046167;22;20037;-62
2023/09/06 02:32:35;;;;;;;8.52;6.57;;;18.60;99.90;;;;;;5008820;28;20049;-62
2023/09/06 02:35:01;;;;;;;12.88;6.40;;;18.60;99.90;;;;;;4995537;28;20106;-63
2023/09/06 02:37:27;;;;;;;11.02;6.15;;;18.60;99.90;;;;;;5012781;28;20084;-63
2023/09/06 02:39:53;;;;;;;9.93;5.95;;;18.60;99.90;;;;;;4994056;28;20077;-63
2023/09/06 02:42:22;;;;;;;8.57;6.43;;;18.60;99.90;;;;;;4974417;28;20092;-62
2023/09/06 02:44:47;;;;;;;8.38;6.07;;;18.60;99.90;;;;;;4985776;28;20041;-63
2023/09/06 02:47:17;;;;;;;7.88;5.70;;;18.60;99.90;;;;;;4993103;28;20041;-63
2023/09/06 02:49:47;;;;;;;9.57;6.03;;;18.60;99.90;;;;;;4993332;28;20046;-62
2023/09/06 02:52:28;;;;;;;10.18;5.75;;;18.50;99.90;;;;;;4975536;28;20400;-63
2023/09/06 02:54:55;;;;;;;9.82;6.32;;;18.50;99.90;;;;;;4978878;28;20500;-62
2023/09/06 02:57:20;;;;;;;8.05;6.07;;;18.50;99.90;;;;;;4991428;28;20081;-62
2023/09/06 02:59:46;;;;;;;8.38;6.18;;;18.50;99.90;;;;;;4992916;28;20034;-63
2023/09/06 03:02:12;;;;;;;10.55;6.00;;;18.50;99.90;;;;;;4992825;28;20392;-62
2023/09/06 03:04:40;;;;;;;11.10;6.72;;;18.50;99.90;;;;;;4991603;28;20439;-62
2023/09/06 03:07:09;;;;;;;9.30;6.25;;;18.40;99.90;;;;;;4993022;28;20409;-63
2023/09/06 03:09:38;;;;;;;9.82;6.22;;;18.40;99.90;;;;;;4975116;28;20511;-65
2023/09/06 03:12:14;;;;;;;8.68;6.57;;;18.40;99.90;;;;;;4992626;28;20046;-65
2023/09/06 03:14:44;;;;;;;7.68;6.10;;;18.40;99.90;;;;;;4992450;28;20042;-67
2023/09/06 03:17:11;;;;;;;8.25;6.10;;;18.40;99.90;;;;;;4992892;28;20043;-65
2023/09/06 03:19:48;;;;;;;8.95;6.60;;;18.30;99.90;;;;;;4990654;28;20031;-65
2023/09/06 03:22:15;;;;;;;7.70;6.13;;;18.30;99.90;;;;;;4992837;28;20121;-65
2023/09/06 03:24:41;;;;;;;11.63;6.75;;;18.30;99.90;;;;;;4991936;28;20043;-65
2023/09/06 03:27:08;;;;;;;9.82;5.95;;;18.30;99.90;;;;;;4993046;28;20165;-65
2023/09/06 03:29:37;;;;;;;8.93;5.80;;;18.30;99.90;;;;;;4992521;28;20144;-65
2023/09/06 03:32:07;;;;;;;10.15;6.10;;;18.20;99.90;;;;;;4992252;28;20403;-65
2023/09/06 03:34:34;;;;;;;7.72;5.65;;;18.20;99.90;;;;;;4974630;28;20069;-65
2023/09/06 03:37:00;;;;;;;8.57;5.72;;;18.20;99.90;;;;;;4992819;28;20047;-65
2023/09/06 03:39:29;;;;;;;8.93;6.20;;;18.10;99.90;;;;;;4992077;28;20511;-65
2023/09/06 03:41:57;;;;;;;9.40;6.13;;;18.10;99.90;;;;;;4968666;28;20085;-66
2023/09/06 03:44:24;;;;;;;8.70;6.07;;;18.10;99.90;;;;;;4991700;28;20378;-65
2023/09/06 03:46:51;;;;;;;9.38;6.25;;;18.00;99.90;;;;;;4974110;28;20373;-65
2023/09/06 03:49:18;;;;;;;9.77;6.47;;;18.10;99.90;;;;;;4989821;28;20394;-65
2023/09/06 03:51:44;;;;;;;9.52;6.50;;;18.10;99.90;;;;;;4991894;28;20045;-64
2023/09/06 03:54:09;;;;;;;9.13;6.57;;;18.00;99.90;;;;;;4991514;28;20117;-65
2023/09/06 03:56:38;;;;;;;8.13;6.50;;;18.00;99.90;;;;;;4974619;28;20779;-65
2023/09/06 03:59:04;;;;;;;8.88;6.72;;;18.00;99.90;;;;;;4974531;28;20054;-65
2023/09/06 04:01:32;;;;;;;7.68;5.95;;;18.00;99.90;;;;;;4990706;28;20053;-65
2023/09/06 04:04:00;;;;;;;8.73;6.10;;;18.00;99.90;;;;;;4991254;28;20806;-65
2023/09/06 04:06:28;;;;;;;9.50;6.75;;;18.00;99.90;;;;;;4991485;28;20046;-65
2023/09/06 04:08:55;;;;;;;8.77;6.40;;;18.00;99.90;;;;;;4991940;28;20030;-65
2023/09/06 04:11:20;;;;;;;7.85;6.13;;;18.00;99.90;;;;;;4972660;28;20374;-65
2023/09/06 04:13:46;;;;;;;9.98;6.32;;;18.00;99.90;;;;;;4988120;28;20037;-65
2023/09/06 04:16:12;;;;;;;8.45;6.57;;;17.90;99.90;;;;;;4991719;28;20409;-65
2023/09/06 04:18:37;;;;;;;12.98;6.82;;;17.90;99.90;;;;;;4973705;28;20507;-66
2023/09/06 04:21:08;;;;;;;10.13;7.10;;;17.90;99.90;;;;;;4987832;28;20128;-64
2023/09/06 04:23:36;;;;;;;10.40;7.10;;;17.90;99.90;;;;;;4991354;28;20053;-66
2023/09/06 04:26:03;;;;;;;8.20;6.32;;;17.90;99.90;;;;;;4991514;28;20031;-65
2023/09/06 04:28:29;;;;;;;9.23;6.75;;;17.90;99.90;;;;;;4991361;28;20057;-64
2023/09/06 04:30:54;;;;;;;15.43;6.20;;;17.80;99.90;;;;;;4991441;28;20034;-64
2023/09/06 04:33:20;;;;;;;14.02;6.63;;;17.80;99.90;;;;;;4973711;28;20054;-65
2023/09/06 04:35:47;;;;;;;8.32;6.50;;;17.80;99.90;;;;;;4990901;28;20090;-66
2023/09/06 04:38:15;;;;;;;8.70;6.50;;;17.80;99.90;;;;;;4991397;28;20046;-64
2023/09/06 04:40:45;;;;;;;12.38;7.28;;;17.80;99.90;;;;;;4991211;28;20522;-65
2023/09/06 04:43:11;;;;;;;7.90;6.30;;;17.70;99.90;;;;;;4991387;28;20041;-65
2023/09/06 04:45:39;;;;;;;8.80;6.47;;;17.70;99.90;;;;;;4990958;28;20046;-65
2023/09/06 04:48:09;;;;;;;7.90;6.38;;;17.70;99.90;;;;;;4990748;28;20117;-64
2023/09/06 04:50:40;;;;;;;8.88;6.15;;;17.70;99.90;;;;;;4958192;28;20038;-64
2023/09/06 04:53:11;;;;;;;11.48;6.80;;;17.70;99.90;;;;;;4974498;28;20141;-65
2023/09/06 04:55:38;;;;;;;9.75;6.72;;;17.70;99.90;;;;;;4974013;28;20034;-65
2023/09/06 04:58:05;;;;;;;9.98;6.38;;;17.70;99.90;;;;;;4958293;28;20046;-65
2023/09/06 05:00:33;;;;;;;9.32;6.80;;;17.60;99.90;;;;;;4956884;28;20074;-65
2023/09/06 05:03:00;;;;;;;9.88;6.15;;;17.60;99.90;;;;;;4987463;28;20049;-67
2023/09/06 05:05:26;;;;;;;7.40;6.20;;;17.60;99.90;;;;;;4984365;28;20043;-65
2023/09/06 05:07:52;;;;;;;8.48;6.45;;;17.60;99.90;;;;;;4994963;28;20034;-65
2023/09/06 05:10:18;;;;;;;10.23;6.63;;;17.50;99.90;;;;;;4988195;28;20042;-65
2023/09/06 05:12:45;;;;;;;8.20;5.95;;;17.50;99.90;;;;;;4993815;28;20034;-65
2023/09/06 05:15:12;;;;;;;10.85;6.55;;;17.50;99.90;;;;;;4992956;28;20096;-67
2023/09/06 05:17:39;;;;;;;11.43;6.93;;;17.50;99.90;;;;;;4993606;28;20052;-65
2023/09/06 05:20:27;;;;;;;8.73;7.10;;;17.50;99.90;;;;;;4993735;28;20057;-65
2023/09/06 05:22:55;;;;;;;9.55;6.60;;;17.50;99.90;;;;;;4995056;28;20428;-66
2023/09/06 05:25:21;;;;;;;7.93;6.80;;;17.50;99.90;;;;;;4994005;28;20412;-67
2023/09/06 05:27:48;;;;;;;7.65;6.28;;;17.50;99.90;;;;;;4994782;28;20046;-64
2023/09/06 05:30:14;;;;;;;8.82;6.68;;;17.40;99.90;;;;;;4977481;28;20049;-65
2023/09/06 05:32:40;;;;;;;9.02;6.55;;;17.40;99.90;;;;;;4994351;28;20396;-65
2023/09/06 05:35:06;;;;;;;9.25;6.60;;;17.40;99.90;;;;;;4994543;28;20043;-66
2023/09/06 05:37:31;;;;;;;8.65;7.10;;;17.40;99.90;;;;;;4994347;28;20044;-65
2023/09/06 05:39:57;;;;;;;9.13;6.75;;;17.40;99.90;;;;;;4976959;28;20405;-65
2023/09/06 05:42:23;;;;;;;11.45;6.90;;;17.40;99.90;;;;;;4976583;28;20308;-65
2023/09/06 05:44:49;;;;;;;9.13;7.05;;;17.40;99.90;;;;;;4994067;28;20437;-64
2023/09/06 05:47:14;;;;;;;9.60;7.00;;;17.40;99.90;;;;;;4976987;28;20050;-65
2023/09/06 05:49:40;;;;;;;10.35;7.38;;;17.40;99.90;;;;;;4994056;28;20390;-65
2023/09/06 05:52:06;;;;;;;9.43;7.18;;;17.40;99.90;;;;;;4994483;28;20053;-66
2023/09/06 05:54:32;;;;;;;10.82;7.85;;;17.40;99.90;;;;;;4993482;28;20090;-67
2023/09/06 05:56:57;;;;;;;8.80;7.25;;;17.30;99.90;;;;;;4985989;28;20038;-65
2023/09/06 05:59:23;;;;;;;8.95;6.72;;;17.40;99.90;;;;;;4990756;28;20042;-64
2023/09/06 06:01:49;;;;;;;10.63;7.45;;;17.40;99.90;;;;;;4987476;28;20042;-64
2023/09/06 06:04:15;;;;;;;9.82;7.18;;;17.40;99.90;;;;;;4993693;28;20558;-64
2023/09/06 06:06:44;;;;;;;10.48;7.18;;;17.50;99.90;;;;;;4976468;28;20046;-65
2023/09/06 06:09:15;;;;;;;10.18;7.53;;;17.50;99.90;;;;;;4993828;28;20134;-65
2023/09/06 06:11:41;;;;;;;12.43;7.85;;;17.50;99.90;;;;;;4993898;28;20045;-65
2023/09/06 06:14:07;;;;;;;9.02;7.32;;;17.50;99.90;;;;;;4993797;28;20035;-65
2023/09/06 06:16:33;;;;;;;11.75;7.88;;;17.50;99.90;;;;;;4976259;28;20389;-66
2023/09/06 06:18:58;;;;;;;10.07;7.30;;;17.50;99.90;;;;;;4992854;28;20041;-67
2023/09/06 06:21:27;;;;;;;12.73;7.65;;;17.50;99.90;;;;;;4993705;28;20097;-65
2023/09/06 06:23:54;;;;;;;10.38;8.02;;;17.60;99.90;;;;;;4992522;28;20396;-65
2023/09/06 06:26:20;;;;;;;11.93;8.48;;;17.60;99.90;;;;;;4994051;28;20584;-65
2023/09/06 06:28:46;;;;;;;9.52;7.72;;;17.60;99.90;;;;;;4993652;28;20097;-65
2023/09/06 06:31:12;;;;;;;10.52;8.32;;;17.70;99.90;;;;;;4975944;28;20034;-65
2023/09/06 06:33:38;;;;;;;11.10;8.40;;;17.70;99.90;;;;;;4986747;28;20041;-66
2023/09/06 06:36:07;;;;;;;10.50;8.40;;;17.70;99.90;;;;;;4993097;28;20393;-65
2023/09/06 06:38:33;;;;;;;11.88;8.13;;;17.70;99.90;;;;;;4989707;28;20512;-68
2023/09/06 06:40:58;;;;;;;10.95;8.30;;;17.70;99.90;;;;;;4982404;28;20095;-64
2023/09/06 06:43:24;;;;;;;12.60;8.98;;;17.70;99.90;;;;;;4966776;28;20080;-65
2023/09/06 06:45:56;;;;;;;10.95;8.18;;;17.80;99.90;;;;;;4987677;28;20045;-65
2023/09/06 06:48:22;;;;;;;9.85;8.23;;;17.80;99.90;;;;;;4992969;28;20043;-65
2023/09/06 06:50:49;;;;;;;10.00;8.20;;;17.90;99.90;;;;;;4975492;28;20035;-66
2023/09/06 06:53:14;;;;;;;11.05;7.50;;;17.80;99.90;;;;;;4992555;28;20039;-65
2023/09/06 06:55:40;;;;;;;11.27;7.90;;;17.90;99.90;;;;;;4992741;28;20034;-64
2023/09/06 06:58:07;;;;;;;13.85;8.63;;;17.90;99.90;;;;;;4974789;28;20515;-65
2023/09/06 07:00:34;;;;;;;10.32;8.57;;;17.90;99.90;;;;;;4974958;28;20046;-65
2023/09/06 07:03:00;;;;;;;13.40;8.40;;;18.00;99.90;;;;;;4992779;28;20038;-66
2023/09/06 07:05:25;;;;;;;11.15;8.82;;;18.00;99.90;;;;;;4991635;28;20077;-65
2023/09/06 07:07:51;;;;;;;10.15;8.43;;;18.00;99.90;;;;;;4992564;28;20061;-65
2023/09/06 07:10:17;;;;;;;10.30;8.38;;;18.00;99.90;;;;;;4974725;28;20119;-65
2023/09/06 07:12:43;;;;;;;13.95;8.82;;;18.10;99.90;;;;;;4992727;28;20039;-65
2023/09/06 07:15:09;;;;;;;12.93;8.50;;;18.10;99.90;;;;;;4992509;28;20042;-65
2023/09/06 07:17:35;;;;;;;10.18;8.65;;;18.10;99.90;;;;;;4989545;28;20062;-65
2023/09/06 07:20:04;;;;;;;13.00;8.20;;;18.20;99.90;;;;;;4984984;28;20181;-65
2023/09/06 07:22:30;;;;;;;11.65;7.90;;;18.30;99.90;;;;;;4992199;28;20042;-66
2023/09/06 07:24:56;;;;;;;9.32;7.40;;;18.40;99.90;;;;;;4991939;28;20045;-66
2023/09/06 07:27:22;;;;;;;11.30;7.45;;;18.40;99.90;;;;;;4987547;28;20030;-66
2023/09/06 07:29:48;;;;;;;8.35;7.45;;;18.40;99.90;;;;;;4991006;28;20030;-66
2023/09/06 07:32:13;;;;;;;9.88;6.82;;;18.50;99.90;;;;;;4989809;28;20041;-66
2023/09/06 07:34:39;;;;;;;11.25;6.70;;;18.50;99.90;;;;;;4991464;28;20034;-65
2023/09/06 07:37:05;;;;;;;9.27;6.60;;;18.60;99.90;;;;;;4990541;28;20062;-66
2023/09/06 07:39:30;;;;;;;9.60;6.97;;;18.70;99.90;;;;;;4992043;28;20038;-66
2023/09/06 07:41:56;;;;;;;12.80;6.93;;;18.70;99.90;;;;;;4988660;28;20463;-65
2023/09/06 07:44:22;;;;;;;11.60;6.90;;;18.90;99.90;;;;;;4990821;28;20412;-66
2023/09/06 07:46:48;;;;;;;8.20;6.53;;;18.90;99.90;;;;;;4984764;28;20093;-66
2023/09/06 07:49:18;;;;;;;8.85;6.43;;;19.00;99.90;;;;;;4989482;28;20440;-66
2023/09/06 07:51:44;;;;;;;11.02;6.18;;;19.10;99.90;;;;;;4983805;28;20125;-66
2023/09/06 07:54:10;;;;;;;9.00;6.40;;;19.20;99.90;;;;;;4990526;28;20401;-66
2023/09/06 07:56:37;;;;;;;9.18;6.20;;;19.20;99.90;;;;;;4974029;28;20057;-66
2023/09/06 07:59:03;;;;;;;8.60;5.72;;;19.30;99.90;;;;;;4990487;28;20717;-65
2023/09/06 08:01:28;;;;;;;7.28;6.22;;;19.40;99.90;;;;;;4990267;28;20089;-66
2023/09/06 08:03:55;;;;;;;10.40;5.90;;;19.40;99.90;;;;;;4988727;28;20034;-66
2023/09/06 08:06:21;;;;;;;7.63;5.93;;;19.50;99.90;;;;;;4990651;28;20046;-65
2023/09/06 08:08:47;;;;;;;6.90;5.47;;;19.60;99.90;;;;;;4989326;28;20424;-66
2023/09/06 08:11:16;;;;;;;8.40;5.68;;;19.70;99.90;;;;;;4989797;28;20038;-65
2023/09/06 08:13:42;;;;;;;7.50;5.88;;;19.70;99.90;;;;;;4986363;28;20046;-65
2023/09/06 08:16:08;;;;;;;10.32;5.60;;;19.80;99.90;;;;;;4987615;28;20492;-66
2023/09/06 08:18:33;;;;;;;8.45;5.70;;;19.90;99.90;;;;;;4972978;28;20049;-66
2023/09/06 08:21:00;;;;;;;10.25;5.70;;;20.00;99.90;;;;;;4989681;28;20050;-66
2023/09/06 08:23:25;;;;;;;7.50;5.53;;;20.10;99.90;;;;;;4974161;28;20046;-66
2023/09/06 08:25:51;;;;;;;9.02;5.10;;;20.20;99.90;;;;;;4990890;28;20038;-66
2023/09/06 08:28:18;;;;;;;9.45;5.20;;;20.30;99.90;;;;;;4974046;28;20169;-66
2023/09/06 08:30:46;;;;;;;7.50;5.18;;;20.30;99.90;;;;;;5021034;22;20274;-64
2023/09/06 08:33:12;;;;;;;8.90;4.55;;;20.40;99.90;;;;;;5050974;28;20108;-62
2023/09/06 08:35:37;;;;;;;7.47;4.72;;;20.50;99.90;;;;;;5050302;28;20171;-64
2023/09/06 08:38:03;;;;;;;7.03;4.38;;;20.60;99.90;;;;;;5050902;28;20040;-64
2023/09/06 08:40:29;;;;;;;6.35;4.07;;;20.70;99.90;;;;;;5050416;28;20115;-64
2023/09/06 08:42:55;;;;;;;10.90;4.30;;;20.80;99.90;;;;;;5031390;28;20036;-64
2023/09/06 08:45:21;;;;;;;5.68;4.20;;;20.90;99.90;;;;;;5040733;28;20055;-64
2023/09/06 08:47:48;;;;;;;5.65;3.92;;;21.00;99.90;;;;;;5032394;28;20041;-64
2023/09/06 08:50:15;;;;;;;10.27;3.90;;;21.00;99.90;;;;;;5050259;28;20044;-64
2023/09/06 08:52:43;;;;;;;8.23;4.05;;;21.10;99.90;;;;;;5049602;28;20498;-63
2023/09/06 08:55:10;;;;;;;7.90;4.07;;;21.20;99.90;;;;;;5049197;28;20045;-63
2023/09/06 08:57:38;;;;;;;5.30;3.80;;;21.40;99.90;;;;;;5028855;28;20078;-64
2023/09/06 09:00:04;;;;;;;;;;;21.40;99.90;;;;;;5031512;28;20048;-64
2023/09/06 09:02:30;;;;;;;;;;;21.50;99.90;;;;;;5048432;28;20389;-64
2023/09/06 09:04:55;;;;;;;;;;;21.70;99.90;;;;;;5029937;28;19924;-64
2023/09/06 09:07:21;;;;;;;;;;;21.90;99.90;;;;;;5049127;28;19917;-64
2023/09/06 09:09:56;;;;;;;;;;;22.10;99.90;;;;;;5032195;28;20046;-63
2023/09/06 09:12:28;;;;;;;;;;;22.30;99.90;;;;;;5039745;28;20287;-64
2023/09/06 09:14:56;;;;;;;5.55;3.83;;;22.50;99.90;;;;;;5049183;28;19921;-64
2023/09/06 09:17:22;;;;;;;;;;;22.80;99.90;;;;;;5043402;28;20048;-64
2023/09/06 09:19:49;;;;;;;;;;;23.00;99.90;;;;;;5050181;28;19921;-64
2023/09/06 09:22:15;;;;;;;;;;;23.20;99.90;;;;;;5028246;28;20382;-64
2023/09/06 09:24:41;;;;;;;;;;;23.40;99.90;;;;;;5040386;28;20329;-65
2023/09/06 09:27:08;;;;;;;6.38;3.70;;;23.60;99.90;;;;;;5026428;28;19920;-63
2023/09/06 09:29:35;;;;;;;5.32;3.95;;;23.80;99.90;;;;;;5049824;28;20051;-64
2023/09/06 09:32:03;;;;;;;;;;;24.00;99.90;;;;;;5038730;28;20450;-64
2023/09/06 09:34:28;;;;;;;5.68;3.55;;;24.30;99.90;;;;;;5037311;28;19917;-65
2023/09/06 09:36:54;;;;;;;6.40;3.97;;;24.50;99.90;;;;;;5026241;28;20048;-65
2023/09/06 09:39:29;;;;;;;;;;;24.70;99.90;;;;;;5049759;28;20542;-65
2023/09/06 09:41:59;;;;;;;;;;;25.00;99.90;;;;;;5040400;28;20000;-65
2023/09/06 09:44:25;;;;;;;8.80;3.50;;;25.20;99.90;;;;;;5027336;28;19961;-65
2023/09/06 09:46:54;;;;;;;;;;;25.40;99.90;;;;;;5038958;28;20033;-65
2023/09/06 09:49:20;;;;;;;;;;;25.40;99.90;;;;;;5033941;28;19920;-65
2023/09/06 09:51:48;;;;;;;;;;;25.60;99.90;;;;;;5039594;28;19956;-65
2023/09/06 09:54:14;;;;;;;;;;;25.70;99.90;;;;;;5049285;28;20352;-65
2023/09/06 09:56:41;;;;;;;;;;;25.90;99.90;;;;;;5043202;28;19923;-65
2023/09/06 09:59:08;;;;;;;;;;;26.00;99.90;;;;;;5048084;28;19917;-65
2023/09/06 10:01:33;;;;;;;;;;;26.10;99.90;;;;;;5035649;28;20259;-65
2023/09/06 10:04:11;;;;;;;;;;;26.30;99.90;;;;;;5052879;28;19974;-65
2023/09/06 10:06:38;;;;;;;;;;;26.40;99.90;;;;;;5046547;28;19920;-65
2023/09/06 10:09:09;;;;;;;;;;;26.60;99.90;;;;;;5048288;28;19925;-65
2023/09/06 10:11:35;;;;;;;;;;;26.80;99.90;;;;;;5053082;28;19921;-63
2023/09/06 10:14:03;;;;;;;;;;;27.00;99.90;;;;;;5049781;28;19927;-65
2023/09/06 10:16:31;;;;;;;6.03;3.03;;;27.20;99.90;;;;;;5047187;28;20007;-65
2023/09/06 10:18:57;;;;;;;7.07;3.55;;;27.40;99.90;;;;;;5052611;28;20045;-66
2023/09/06 10:21:23;;;;;;;6.45;3.42;;;27.50;99.90;;;;;;5052253;28;20049;-65
2023/09/06 10:23:49;;;;;;;4.95;3.15;;;27.60;99.90;;;;;;5052531;28;20461;-65
2023/09/06 10:26:26;;;;;;;4.63;3.08;;;27.80;99.90;;;;;;5046183;28;20091;-65
2023/09/06 10:28:59;;;;;;;6.82;3.80;;;28.00;99.90;;;;;;5033038;28;20103;-66
2023/09/06 10:31:45;;;;;;;5.88;4.00;;;28.00;99.90;;;;;;5030552;28;20072;-64
2023/09/06 10:34:12;;;;;;;5.50;3.63;;;28.00;99.90;;;;;;5030461;28;20095;-66
2023/09/06 10:36:54;;;;;;;4.90;3.38;;;28.10;99.90;;;;;;5052344;28;20033;-65
2023/09/06 10:39:25;;;;;;;4.28;3.08;;;28.00;99.90;;;;;;5031676;28;20041;-65
2023/09/06 10:42:09;;;;;;;4.30;3.25;;;28.20;99.90;;;;;;5047219;28;20305;-65
2023/09/06 10:44:53;;;;;;;4.70;3.22;;;28.30;99.30;;;;;;5033299;28;20481;-66
2023/09/06 10:47:38;;;;;;;8.07;2.83;;;28.30;98.50;;;;;;5048979;28;20056;-66
2023/09/06 10:50:18;;;;;;;4.30;3.10;;;28.40;98.60;;;;;;5042284;28;20049;-66
2023/09/06 10:52:53;;;;;;;5.77;3.10;;;28.40;98.30;;;;;;5036461;28;20041;-66
2023/09/06 10:55:23;;;;;;;6.20;2.97;;;28.60;98.60;;;;;;5051314;28;20029;-65
2023/09/06 10:57:52;;;;;;;4.68;2.85;;;28.60;97.90;;;;;;5052284;28;20432;-66
2023/09/06 11:00:31;;;;;;;5.20;3.30;;;28.70;97.40;;;;;;5039217;28;20414;-66
2023/09/06 11:03:09;;;;;;;5.38;2.78;;;28.80;97.60;;;;;;5051771;28;20055;-65
2023/09/06 11:05:42;;;;;;;4.50;3.50;;;28.80;97.30;;;;;;5043847;28;20037;-66
2023/09/06 11:08:09;;;;;;;4.85;2.80;;;28.90;97.20;;;;;;5043590;28;20097;-65
2023/09/06 11:10:36;;;;;;;4.00;2.85;;;28.90;97.00;;;;;;5019085;28;20391;-65
2023/09/06 11:13:14;;;;;;;5.40;3.17;;;29.00;97.00;;;;;;5035229;28;20492;-66
2023/09/06 11:15:41;;;;;;;3.63;2.97;;;29.00;96.20;;;;;;5034711;28;20514;-65
2023/09/06 11:18:08;;;;;;;4.35;2.92;;;29.20;97.00;;;;;;5041476;28;20052;-66
2023/09/06 11:20:35;;;;;;;5.43;3.40;;;29.30;97.00;;;;;;5041711;28;20422;-64
2023/09/06 11:23:03;;;;;;;5.43;3.08;;;29.40;96.10;;;;;;5037445;28;20055;-66
2023/09/06 11:25:31;;;;;;;4.70;3.00;;;29.40;95.50;;;;;;5049162;28;20403;-66
2023/09/06 11:28:13;;;;;;;7.65;3.78;;;29.50;95.90;;;;;;5037387;28;20052;-65
2023/09/06 11:30:39;;;;;;;6.47;2.60;;;29.60;96.20;;;;;;5035868;28;20041;-65
2023/09/06 11:33:07;;;;;;;4.43;2.88;;;29.70;95.80;;;;;;5054091;28;20048;-67
2023/09/06 11:35:41;;;;;;;4.07;2.85;;;29.80;95.10;;;;;;5054139;28;20111;-66
2023/09/06 11:38:11;;;;;;;3.90;3.15;;;29.80;94.30;;;;;;5037706;28;20045;-66
2023/09/06 11:40:38;;;;;;;5.63;3.30;;;29.80;94.60;;;;;;5044350;28;20067;-66
2023/09/06 11:43:05;;;;;;;4.43;2.90;;;29.70;94.70;;;;;;5050700;28;20033;-66
2023/09/06 11:45:32;;;;;;;5.15;3.17;;;29.70;94.50;;;;;;5051234;28;20081;-65
2023/09/06 11:48:08;;;;;;;2.70;2.42;;;29.80;94.30;;;;;;5044516;28;20076;-65
2023/09/06 11:50:36;;;;;;;4.40;2.40;;;29.80;93.90;;;;;;5033801;28;20121;-65
2023/09/06 11:53:04;;;;;;;5.05;2.53;;;29.90;94.00;;;;;;5046719;28;20495;-65
2023/09/06 11:55:34;;;;;;;4.50;2.75;;;30.00;93.90;;;;;;5050995;28;20063;-66
2023/09/06 11:58:00;;;;;;;2.88;2.45;;;30.10;93.80;;;;;;5051538;28;20052;-65
2023/09/06 12:00:42;;;;;;;4.88;2.70;;;30.20;92.00;;;;;;5050841;28;20072;-65
2023/09/06 12:03:16;;;;;;;4.97;2.78;;;30.20;91.90;;;;;;5051260;28;20568;-65
2023/09/06 12:05:46;;;;;;;4.63;2.80;;;30.20;92.30;;;;;;5046812;28;20047;-64
2023/09/06 12:08:19;;;;;;;4.47;2.45;;;30.20;92.50;;;;;;5051264;28;20554;-65
2023/09/06 12:10:52;;;;;;;4.18;2.63;;;30.30;93.20;;;;;;5051152;28;20044;-65
2023/09/06 12:13:29;;;;;;;3.63;2.30;;;30.30;92.30;;;;;;5051300;28;20068;-65
2023/09/06 12:15:58;;;;;;;5.68;2.47;;;30.30;92.70;;;;;;5047667;28;20040;-66
2023/09/06 12:18:26;;;;;;;4.63;2.72;;;30.30;92.80;;;;;;5051135;28;20037;-66
2023/09/06 12:20:52;;;;;;;3.40;2.78;;;30.40;92.80;;;;;;5032969;28;20084;-65
2023/09/06 12:23:21;;;;;;;3.40;2.58;;;30.50;92.70;;;;;;5040470;28;20076;-65
2023/09/06 12:25:47;;;;;;;3.80;2.40;;;30.60;91.80;;;;;;5045804;28;20049;-65
2023/09/06 12:28:13;;;;;;;3.20;2.17;;;30.70;92.20;;;;;;5051019;28;20056;-65
2023/09/06 12:30:39;;;;;;;3.45;2.40;;;30.70;91.90;;;;;;5048019;28;20127;-65
2023/09/06 12:33:04;;;;;;;4.18;2.72;;;30.70;91.90;;;;;;5031374;28;20174;-65
2023/09/06 12:35:37;;;;;;;5.50;2.28;;;30.80;91.60;;;;;;5040869;28;20064;-64
2023/09/06 12:38:03;;;;;;;6.18;2.58;;;30.80;91.20;;;;;;5024177;28;20049;-65
2023/09/06 12:40:30;;;;;;;4.68;2.45;;;30.80;91.30;;;;;;5043222;28;20048;-66
2023/09/06 12:42:57;;;;;;;5.25;2.40;;;30.70;91.10;;;;;;5044126;28;20045;-65
2023/09/06 12:45:30;;;;;;;4.20;2.78;;;30.80;91.30;;;;;;5025324;28;20482;-64
2023/09/06 12:48:00;;;;;;;3.58;2.50;;;30.80;90.10;;;;;;5044486;28;20124;-65
2023/09/06 12:50:26;;;;;;;4.28;3.22;;;30.80;90.30;;;;;;5046893;28;20398;-65
2023/09/06 12:52:53;;;;;;;3.53;2.45;;;30.70;90.20;;;;;;5049328;28;20040;-66
2023/09/06 12:55:19;;;;;;;6.53;2.83;;;30.70;90.70;;;;;;5014639;28;20041;-65